• Join FlightAware (Why Join?)
  • Login
  • US Flag 
11:01AM EDT


 

Airport Tracker/Info


-or-


 

Live Flight TrackerFlight Track Log ✈ SWA2624 ✈ 17-Jun-2013 ✈ KSEA - KPHX

Flight Track Log - Related Links

Times and Time Zones

All times are in EDT time to prevent confusion due to time zone crossing. See the SWA2624 flight status page for this flight to view local times or setup timezone preferences in your user account.

Time Position Orientation Groundspeed Altitude Reporting Facility
EDT Latitude Longitude Course Direction KTS MPH feet Rate Location/Type
09:38AM 47.4278 -122.3078 181° South 171 197 1,400  Level Seattle Center
09:39AM 47.3675 -122.3089 181° South 210 242 4,100 2,940 Climbing Seattle Center
09:40AM 47.2953 -122.3097 180° South 255 293 7,600 3,360 Climbing Seattle Center
09:41AM 47.2183 -122.3056 178° South 276 318 10,900 2,700 Climbing Seattle Center
09:42AM 47.1403 -122.2272 146° Southeast 344 396 13,100 2,520 Climbing Seattle Center
09:43AM 47.0506 -122.1583 152° Southeast 364 419 16,000 2,580 Climbing Seattle Center
09:44AM 46.9531 -122.1194 165° South 387 445 18,400 2,280 Climbing Seattle Center
09:45AM 46.8556 -122.0394 151° Southeast 407 468 20,600 2,220 Climbing Seattle Center
09:46AM 46.7558 -121.9500 148° Southeast 424 488 22,900 2,100 Climbing Seattle Center
09:47AM 46.6539 -121.8622 149° Southeast 431 496 24,900 2,220 Climbing Seattle Center
09:48AM 46.5297 -121.7536 149° Southeast 438 504 27,400 2,160 Climbing Seattle Center
09:49AM 46.4278 -121.6644 149° Southeast 435 501 29,400 1,860 Climbing Seattle Center
09:50AM 46.3233 -121.5744 149° Southeast 434 499 31,200 1,680 Climbing Seattle Center
09:51AM 46.2197 -121.4850 149° Southeast 435 501 32,800 1,500 Climbing Seattle Center
09:52AM 46.1172 -121.3953 149° Southeast 432 497 34,300 1,500 Climbing Seattle Center
09:53AM 46.0133 -121.3081 150° Southeast 433 498 35,900 1,440 Climbing Seattle Center
09:54AM 45.9125 -121.2214 149° Southeast 427 491 37,300 1,200 Climbing Seattle Center
09:55AM 45.8119 -121.1383 150° Southeast 420 483 38,400 780 Climbing Seattle Center
09:56AM 45.7111 -121.0531 149° Southeast 421 484 38,900 240 Climbing Seattle Center
09:57AM 45.6097 -120.9667 149° Southeast 424 488 39,000  Climbing Seattle Center
09:58AM 45.5078 -120.8819 150° Southeast 425 489 39,000  Level Seattle Center
09:59AM 45.4053 -120.7967 150° Southeast 427 491 39,000  Level Seattle Center
10:00AM 45.3031 -120.7131 150° Southeast 426 490 39,000  Level Seattle Center
10:01AM 45.2022 -120.6283 149° Southeast 424 488 39,000  Level Seattle Center
10:02AM 45.1014 -120.5447 150° Southeast 424 488 39,000  Level Seattle Center
10:04AM 44.9997 -120.4636 151° Southeast 423 487 39,000  Level Seattle Center
10:05AM 44.8797 -120.3658 150° Southeast 421 484 39,000  Level Seattle Center
10:06AM 44.7792 -120.2844 150° Southeast 422 486 39,000  Level Seattle Center
10:07AM 44.6786 -120.2031 150° Southeast 423 487 39,000  Level Seattle Center
10:08AM 44.5769 -120.1214 150° Southeast 425 489 39,000  Level Seattle Center
10:09AM 44.4739 -120.0397 151° Southeast 427 491 39,000  Level Seattle Center
10:10AM 44.3706 -119.9578 150° Southeast 429 494 39,000  Level Seattle Center
10:11AM 44.2681 -119.8753 150° Southeast 428 493 39,000  Level Seattle Center
10:12AM 44.1642 -119.7928 150° Southeast 431 496 39,000  Level Seattle Center
10:13AM 44.0606 -119.7114 151° Southeast 431 496 39,000  Level Seattle Center
10:14AM 43.9561 -119.6297 151° Southeast 432 497 39,000  Level Seattle Center
10:15AM 43.8517 -119.5492 151° Southeast 431 496 39,000  Level Seattle Center
10:16AM 43.7475 -119.4669 150° Southeast 432 497 39,000  Level Seattle Center
10:17AM 43.6219 -119.3703 151° Southeast 432 497 39,000  Level Seattle Center
10:18AM 43.5175 -119.2897 151° Southeast 433 498 39,000  Level Seattle Center
10:19AM 43.4125 -119.2103 151° Southeast 431 496 39,000  Level Seattle Center
10:20AM 43.3083 -119.1292 150° Southeast 432 497 39,000  Level Seattle Center
10:21AM 43.2044 -119.0517 151° Southeast 439 505 39,000  Level Seattle Center
10:22AM 43.0878 -118.9631 151° Southeast 433 498 39,000  Level Seattle Center
10:23AM 42.9853 -118.8861 151° Southeast 438 504 39,000  Level Seattle Center
10:23AM 42.9692 -118.8739 151° Southeast 435 501 39,000  Level Salt Lake Center
10:24AM 42.8633 -118.7942 151° Southeast 435 501 39,000  Level Salt Lake Center
10:25AM 42.7353 -118.6978 151° Southeast 437 503 39,000  Level Salt Lake Center
10:26AM 42.6281 -118.6186 151° Southeast 439 505 39,000  Level Salt Lake Center
10:27AM 42.5186 -118.5383 152° Southeast 442 509 39,000  Level Salt Lake Center
10:28AM 42.4153 -118.4614 151° Southeast 445 512 39,000  Level Salt Lake Center
10:29AM 42.2939 -118.3717 151° Southeast 444 511 39,000  Level Salt Lake Center
10:30AM 42.1906 -118.2964 152° Southeast 443 510 39,000  Level Salt Lake Center
10:31AM 42.0686 -118.2083 152° Southeast 444 511 39,000  Level Salt Lake Center
10:32AM 41.9639 -118.1331 152° Southeast 445 512 39,000  Level Salt Lake Center
10:33AM 41.8614 -118.0583 151° Southeast 441 507 39,000  Level Salt Lake Center
10:34AM 41.7531 -117.9453 142° Southeast 440 506 39,000  Level Salt Lake Center
10:35AM 41.6669 -117.8358 136° Southeast 445 512 39,000  Level Salt Lake Center
10:36AM 41.5661 -117.7089 137° Southeast 446 513 39,000  Level Salt Lake Center
10:37AM 41.4789 -117.6017 137° Southeast 446 513 39,000  Level Salt Lake Center
10:38AM 41.3789 -117.4767 137° Southeast 442 509 39,000  Level Salt Lake Center
10:39AM 41.2917 -117.3697 137° Southeast 444 511 39,000  Level Salt Lake Center
10:40AM 41.2036 -117.2606 137° Southeast 450 518 39,000  Level Salt Lake Center
10:42AM 41.1014 -117.1344 137° Southeast 448 516 39,000  Level Salt Lake Center
10:43AM 41.0131 -117.0264 137° Southeast 450 518 39,000  Level Salt Lake Center
10:44AM 40.9081 -116.9003 138° Southeast 453 521 39,000  Level Salt Lake Center
10:45AM 40.8189 -116.7914 137° Southeast 453 521 39,000  Level Salt Lake Center
10:46AM 40.7303 -116.6833 137° Southeast 451 519 39,000  Level Salt Lake Center
10:47AM 40.6242 -116.5564 138° Southeast 454 522 39,000  Level Salt Lake Center
10:48AM 40.5328 -116.4481 138° Southeast 457 526 39,000  Level Salt Lake Center
10:49AM 40.4275 -116.3208 137° Southeast 458 527 39,000  Level Salt Lake Center
10:50AM 40.3364 -116.2119 138° Southeast 458 527 39,000  Level Salt Lake Center
10:51AM 40.2431 -116.1042 139° Southeast 461 531 39,000  Level Salt Lake Center
10:52AM 40.1381 -115.9764 137° Southeast 462 532 39,000  Level Salt Lake Center
10:53AM 40.0461 -115.8672 138° Southeast 464 534 39,000  Level Salt Lake Center
10:54AM 39.9372 -115.7411 138° Southeast 466 536 39,000  Level Salt Lake Center
10:55AM 39.8417 -115.6350 140° Southeast 470 541 39,000  Level Salt Lake Center
10:56AM 39.7336 -115.5081 138° Southeast 467 537 39,000  Level Salt Lake Center
10:57AM 39.6394 -115.4003 139° Southeast 470 541 39,000  Level Salt Lake Center
10:58AM 39.5322 -115.2719 137° Southeast 470 541 39,000  Level Salt Lake Center
10:59AM 39.4369 -115.1656 139° Southeast 470 541 39,000  Level Salt Lake Center
11:00AM 39.3425 -115.0581 139° Southeast 473 544 39,000  Level Salt Lake Center
11:01AM 39.2300 -114.9339 139° Southeast 474 545 39,000  Level Salt Lake Center
11:02AM 39.1203 -114.8125 139° Southeast 476 548 39,000  Level Salt Lake Center
11:03AM 39.0231 -114.6992 138° Southeast 474 545 39,000  Level Salt Lake Center
11:04AM 38.9247 -114.5858 138° Southeast 476 548 39,000  Level Salt Lake Center
11:05AM 38.8247 -114.4747 139° Southeast 476 548 39,000  Level Salt Lake Center
11:06AM 38.7250 -114.3639 139° Southeast 474 545 39,000  Level Salt Lake Center
11:07AM 38.6244 -114.2528 139° Southeast 478 550 39,000  Level Salt Lake Center
11:08AM 38.5042 -114.1206 139° Southeast 476 548 39,000  Level Salt Lake Center
11:09AM 38.4028 -114.0097 139° Southeast 481 554 39,000  Level Salt Lake Center
11:10AM 38.3014 -113.8981 139° Southeast 482 555 39,000  Level Salt Lake Center
11:11AM 38.1983 -113.7869 140° Southeast 485 558 39,000  Level Salt Lake Center
11:12AM 38.0950 -113.6758 140° Southeast 487 560 39,000  Level Salt Lake Center
11:13AM 37.9914 -113.5650 140° Southeast 490 564 39,000  Level Salt Lake Center
11:15AM 37.7881 -113.4128 149° Southeast 475 547 39,000  Level Los Angeles Center
11:16AM 37.7406 -113.3847 155° Southeast 474 545 39,000  Level Salt Lake Center
11:17AM 37.6219 -113.3131 154° Southeast 476 548 39,000  Level Salt Lake Center
11:18AM 37.5050 -113.2422 154° Southeast 473 544 39,000 -360 Level Salt Lake Center
11:19AM 37.3886 -113.1703 154° Southeast 472 543 38,300 -900 Descending Salt Lake Center
11:19AM 37.2947 -113.1139 154° Southeast 472 543 37,600 -1,080 Descending Los Angeles Center
11:20AM 37.1778 -113.0425 154° Southeast 472 543 36,600 -960 Descending Los Angeles Center
11:21AM 37.0603 -112.9725 155° Southeast 472 543 35,700 -780 Descending Los Angeles Center
11:22AM 36.9419 -112.9022 155° Southeast 473 544 35,000 -360 Descending Los Angeles Center
11:23AM 36.8233 -112.8317 155° Southeast 475 547 35,000 -60 Level Los Angeles Center
11:24AM 36.6822 -112.7492 155° Southeast 470 541 34,900 -540 Descending Los Angeles Center
11:25AM 36.5625 -112.6797 155° Southeast 474 545 33,900 -1,020 Descending Los Angeles Center
11:27AM 36.4169 -112.5947 155° Southeast 481 554 32,700 -960 Descending Los Angeles Center
11:28AM 36.2972 -112.5247 155° Southeast 478 550 31,800 -960 Descending Los Angeles Center
11:29AM 36.1775 -112.4553 155° Southeast 476 548 30,800 -960 Descending Los Angeles Center
11:30AM 36.0528 -112.4031 161° South 477 549 29,900 -900 Descending Los Angeles Center
11:31AM 35.9119 -112.4089 182° South 461 531 29,000 -480 Descending Los Angeles Center
11:32AM 35.7833 -112.4139 182° South 462 532 29,000  Level Los Angeles Center
11:33AM 35.6533 -112.4203 182° South 466 536 29,000  Level Los Angeles Center
11:34AM 35.4989 -112.4311 183° South 461 531 29,000  Level Los Angeles Center
11:35AM 35.3697 -112.4322 180° South 464 534 29,000  Level Los Angeles Center
11:35AM 35.3431 -112.4258 169° South 465 535 29,000  Level Albuquerque Center
11:36AM 35.2164 -112.3989 170° South 463 533 29,000  Level Albuquerque Center
11:37AM 35.0961 -112.3722 170° South 451 519 29,000 -180 Level Albuquerque Center
11:38AM 34.9767 -112.3467 170° South 443 510 28,700 -1,500 Descending Albuquerque Center
11:39AM 34.8314 -112.3147 170° South 441 507 26,000 -1,800 Descending Albuquerque Center
11:40AM 34.7139 -112.2892 170° South 437 503 25,100 -1,560 Descending Albuquerque Center
11:41AM 34.6006 -112.2628 169° South 427 491 22,800 -2,220 Descending Albuquerque Center
11:42AM 34.4919 -112.2411 171° South 413 475 20,600 -1,560 Descending Albuquerque Center
11:44AM 34.3889 -112.2167 169° South 395 455 19,600 -1,440 Descending Albuquerque Center
11:45AM 34.2919 -112.1908 168° South 376 433 17,700 -2,040 Descending Albuquerque Center
11:46AM 34.1783 -112.1603 167° South 355 409 15,400 -1,800 Descending Albuquerque Center
11:47AM 34.0872 -112.1369 168° South 341 392 14,100 -1,380 Descending Albuquerque Center
11:48AM 34.0033 -112.1447 184° South 307 353 12,600 -1,200 Descending Albuquerque Center
11:49AM 33.9233 -112.1544 186° South 292 336 11,700 -780 Descending Albuquerque Center
11:50AM 33.8556 -112.1667 189° South 250 288 11,100 -1,020 Descending Albuquerque Center
11:51AM 33.7783 -112.1831 190° South 236 272 9,700 -1,200 Descending Albuquerque Center
11:52AM 33.7144 -112.1956 189° South 235 270 8,700 -1,080 Descending Albuquerque Center
11:53AM 33.6519 -112.2100 191° South 230 265 7,500 -1,140 Descending Albuquerque Center
11:54AM 33.5875 -112.2233 190° South 234 269 6,400 -1,020 Descending Albuquerque Center
11:55AM 33.5239 -112.2278 183° South 232 267 5,500 -960 Descending Albuquerque Center
11:56AM 33.4731 -112.2056 160° South 203 234 4,500 -1,260 Descending Albuquerque Center
11:57AM 33.4433 -112.1392 118° Southeast 189 217 2,900 -1,200 Descending Albuquerque Center
11:58AM 33.4333 -112.0833 102° East 154 177 1,900 -840 Descending Phoenix TRACON
12:01PM 33.4343 -112.0116 270° West  Level Estimated